createdAt,value
2017-11-07T00:00:47.409Z,10.80
2017-11-07T00:03:15.794Z,10.80
2017-11-07T00:05:44.163Z,10.70
2017-11-07T00:08:12.576Z,10.70
2017-11-07T00:10:40.168Z,10.70
2017-11-07T00:13:07.815Z,10.70
2017-11-07T00:15:35.454Z,10.70
2017-11-07T00:18:03.054Z,10.70
2017-11-07T00:20:30.653Z,10.70
2017-11-07T00:22:59.048Z,10.70
2017-11-07T00:25:26.654Z,10.60
2017-11-07T00:27:54.308Z,10.60
2017-11-07T00:30:21.907Z,10.70
2017-11-07T00:32:50.270Z,10.60
2017-11-07T00:35:17.897Z,10.60
2017-11-07T00:37:45.493Z,10.60
2017-11-07T00:40:13.093Z,10.60
2017-11-07T00:42:40.718Z,10.60
2017-11-07T00:45:09.082Z,10.60
2017-11-07T00:47:36.682Z,10.60
2017-11-07T00:50:05.069Z,10.60
2017-11-07T00:52:32.665Z,10.60
2017-11-07T00:55:00.298Z,10.60
2017-11-07T00:57:27.897Z,10.60
2017-11-07T00:59:55.491Z,10.60
2017-11-07T01:02:23.887Z,10.50
2017-11-07T01:04:51.478Z,10.50
2017-11-07T01:07:19.079Z,10.50
2017-11-07T01:09:46.693Z,10.50
2017-11-07T01:12:14.290Z,10.50
2017-11-07T01:14:41.925Z,10.50
2017-11-07T01:17:09.521Z,10.50
2017-11-07T01:19:38.620Z,10.40
2017-11-07T01:22:07.746Z,10.40
2017-11-07T01:24:35.355Z,10.40
2017-11-07T01:27:02.992Z,10.50
2017-11-07T01:29:30.583Z,10.50
2017-11-07T01:31:58.177Z,10.40
2017-11-07T01:34:26.573Z,10.40
2017-11-07T01:36:54.169Z,10.30
2017-11-07T01:39:21.766Z,10.40
2017-11-07T01:41:50.157Z,10.40
2017-11-07T01:44:18.522Z,10.40
2017-11-07T01:46:46.911Z,10.40
2017-11-07T01:49:15.280Z,10.40
2017-11-07T01:51:43.667Z,10.30
2017-11-07T01:54:12.029Z,10.30
2017-11-07T01:56:39.649Z,10.30
2017-11-07T01:59:07.263Z,10.30
2017-11-07T02:01:35.673Z,10.30
2017-11-07T02:04:03.301Z,10.30
2017-11-07T02:06:31.697Z,10.30
2017-11-07T02:08:59.297Z,10.30
2017-11-07T02:11:26.918Z,10.30
2017-11-07T02:13:54.513Z,10.30
2017-11-07T02:16:22.145Z,10.30
2017-11-07T02:18:49.733Z,10.30
2017-11-07T02:21:17.368Z,10.30
2017-11-07T02:23:44.956Z,10.20
2017-11-07T02:26:12.561Z,10.30
2017-11-07T02:28:40.972Z,10.20
2017-11-07T02:31:08.597Z,10.20
2017-11-07T02:33:36.242Z,10.20
2017-11-07T02:36:03.850Z,10.10
2017-11-07T02:38:31.460Z,10.10
2017-11-07T02:40:59.090Z,10.10
2017-11-07T02:43:26.690Z,10.10
2017-11-07T02:45:54.342Z,10.10
2017-11-07T02:48:21.941Z,10.10
2017-11-07T02:50:50.297Z,10.10
2017-11-07T02:53:17.914Z,10.10
2017-11-07T02:55:45.516Z,10.10
2017-11-07T02:58:13.246Z,10.20
2017-11-07T03:00:40.848Z,10.20
2017-11-07T03:03:10.174Z,10.20
2017-11-07T03:05:37.870Z,10.10
2017-11-07T03:08:05.474Z,10.20
2017-11-07T03:10:33.885Z,10.10
2017-11-07T03:13:01.493Z,10.10
2017-11-07T03:15:29.117Z,10.20
2017-11-07T03:17:56.716Z,10.20
2017-11-07T03:20:24.343Z,10.10
2017-11-07T03:22:51.934Z,10.10
2017-11-07T03:25:20.023Z,10.10
2017-11-07T03:27:47.627Z,10.10
2017-11-07T03:30:15.256Z,10.10
2017-11-07T03:32:43.624Z,10.10
2017-11-07T03:35:11.250Z,10.00
2017-11-07T03:37:38.837Z,10.10
2017-11-07T03:40:06.429Z,10.10
2017-11-07T03:42:34.820Z,10.10
2017-11-07T03:45:02.414Z,10.00
2017-11-07T03:47:30.053Z,10.10
2017-11-07T03:49:57.648Z,10.00
2017-11-07T03:52:25.253Z,10.00
2017-11-07T03:54:52.865Z,9.90
2017-11-07T03:57:20.476Z,9.90
2017-11-07T03:59:48.101Z,9.90
2017-11-07T04:02:15.689Z,9.90
2017-11-07T04:04:44.077Z,9.90
2017-11-07T04:07:11.667Z,9.80
2017-11-07T04:09:39.258Z,9.90
2017-11-07T04:12:06.887Z,9.90
2017-11-07T04:14:34.483Z,9.90
2017-11-07T04:17:02.094Z,9.90
2017-11-07T04:19:29.680Z,9.90
2017-11-07T04:21:57.300Z,9.90
2017-11-07T04:24:24.881Z,9.90
2017-11-07T04:26:52.474Z,9.90
2017-11-07T04:29:20.085Z,9.90
2017-11-07T04:31:47.677Z,9.90
2017-11-07T04:34:15.296Z,9.90
2017-11-07T04:36:43.649Z,9.90
2017-11-07T04:39:11.377Z,9.80
2017-11-07T04:41:38.968Z,9.90
2017-11-07T04:44:07.319Z,9.90
2017-11-07T04:46:34.937Z,9.80
2017-11-07T04:49:03.294Z,9.90
2017-11-07T04:51:30.910Z,9.80
2017-11-07T04:53:58.506Z,9.80
2017-11-07T04:56:26.120Z,9.80
2017-11-07T04:58:53.712Z,9.80
2017-11-07T05:01:21.299Z,9.80
2017-11-07T05:03:49.678Z,9.80
2017-11-07T05:06:18.050Z,9.80
2017-11-07T05:08:45.690Z,9.70
2017-11-07T05:11:13.291Z,9.70
2017-11-07T05:13:41.659Z,9.70
2017-11-07T05:16:10.056Z,9.60
2017-11-07T05:18:37.649Z,9.60
2017-11-07T05:21:05.271Z,9.60
2017-11-07T05:23:33.625Z,9.60
2017-11-07T05:26:01.218Z,9.60
2017-11-07T05:28:28.830Z,9.60
2017-11-07T05:30:56.423Z,9.60
2017-11-07T05:33:24.809Z,9.70
2017-11-07T05:35:53.161Z,9.70
2017-11-07T05:38:20.750Z,9.60
2017-11-07T05:40:49.124Z,9.70
2017-11-07T05:43:17.503Z,9.70
2017-11-07T05:45:45.893Z,9.70
2017-11-07T05:48:13.485Z,9.60
2017-11-07T05:50:41.118Z,9.70
2017-11-07T05:53:08.715Z,9.70
2017-11-07T05:55:36.956Z,9.70
2017-11-07T05:58:04.586Z,9.60
2017-11-07T06:00:32.952Z,9.60
2017-11-07T06:03:00.594Z,9.50
2017-11-07T06:05:28.194Z,9.60
2017-11-07T06:07:56.590Z,9.60
2017-11-07T06:10:24.945Z,9.60
2017-11-07T06:12:52.533Z,9.50
2017-11-07T06:15:20.154Z,9.60
2017-11-07T06:17:47.745Z,9.60
2017-11-07T06:20:15.374Z,9.60
2017-11-07T06:22:42.961Z,9.60
2017-11-07T06:25:11.314Z,9.60
2017-11-07T06:27:38.934Z,9.60
2017-11-07T06:30:06.528Z,9.60
2017-11-07T06:32:34.158Z,9.60
2017-11-07T06:35:01.750Z,9.60
2017-11-07T06:37:29.349Z,9.60
2017-11-07T06:39:56.980Z,9.60
2017-11-07T06:42:24.567Z,9.60
2017-11-07T06:44:52.958Z,9.60
2017-11-07T06:47:20.545Z,9.50
2017-11-07T06:49:48.138Z,9.60
2017-11-07T06:52:15.766Z,9.60
2017-11-07T06:54:43.357Z,9.60
2017-11-07T06:57:10.984Z,9.50
2017-11-07T06:59:38.578Z,9.40
2017-11-07T07:02:06.173Z,9.40
2017-11-07T07:04:33.794Z,9.40
2017-11-07T07:07:02.158Z,9.40
2017-11-07T07:09:29.777Z,9.30
2017-11-07T07:11:57.362Z,9.40
2017-11-07T07:14:24.954Z,9.40
2017-11-07T07:16:52.570Z,9.40
2017-11-07T07:19:20.158Z,9.40
2017-11-07T07:21:47.773Z,9.30
2017-11-07T07:24:15.362Z,9.30
2017-11-07T07:26:42.981Z,9.40
2017-11-07T07:29:11.332Z,9.40
2017-11-07T07:31:39.077Z,9.40
2017-11-07T07:34:06.694Z,9.40
2017-11-07T07:36:34.302Z,9.50
2017-11-07T07:39:01.926Z,9.50
2017-11-07T07:41:29.535Z,9.50
2017-11-07T07:43:57.171Z,9.50
2017-11-07T07:46:24.767Z,9.50
2017-11-07T07:48:52.357Z,9.50
2017-11-07T07:51:20.737Z,9.50
2017-11-07T07:53:49.084Z,9.50
2017-11-07T07:56:16.705Z,9.40
2017-11-07T07:58:44.301Z,9.50
2017-11-07T08:01:11.896Z,9.40
2017-11-07T08:03:40.281Z,9.40
2017-11-07T08:06:07.906Z,9.40
2017-11-07T08:08:35.583Z,9.40
2017-11-07T08:11:03.969Z,9.50
2017-11-07T08:13:32.374Z,9.50
2017-11-07T08:15:59.970Z,9.50
2017-11-07T08:18:27.566Z,9.50
2017-11-07T08:20:55.946Z,9.50
2017-11-07T08:23:24.311Z,9.60
2017-11-07T08:25:51.954Z,9.50
2017-11-07T08:28:19.544Z,9.60
2017-11-07T08:30:47.900Z,9.60
2017-11-07T08:33:16.355Z,9.60
2017-11-07T08:35:43.941Z,9.60
2017-11-07T08:38:11.570Z,9.60
2017-11-07T08:40:39.165Z,9.70
2017-11-07T08:43:07.553Z,9.70
2017-11-07T08:45:35.170Z,9.70
2017-11-07T08:48:02.759Z,9.80
2017-11-07T08:50:30.386Z,9.80
2017-11-07T08:52:57.985Z,9.80
2017-11-07T08:55:25.606Z,9.80
2017-11-07T08:57:53.206Z,9.80
2017-11-07T09:00:20.805Z,9.80
2017-11-07T09:02:48.424Z,9.80
2017-11-07T09:05:16.009Z,9.80
2017-11-07T09:07:43.661Z,9.80
2017-11-07T09:10:11.254Z,9.80
2017-11-07T09:12:38.853Z,9.80
2017-11-07T09:15:06.488Z,9.80
2017-11-07T09:17:34.101Z,9.80
2017-11-07T09:20:01.726Z,9.80
2017-11-07T09:22:31.627Z,9.90
2017-11-07T09:25:00.181Z,9.90
2017-11-07T09:27:28.537Z,9.90
2017-11-07T09:29:56.133Z,9.80
2017-11-07T09:32:23.745Z,9.90
2017-11-07T09:34:51.333Z,9.90
2017-11-07T09:37:19.771Z,9.90
2017-11-07T09:39:47.370Z,9.90
2017-11-07T09:42:15.765Z,10.00
2017-11-07T09:44:43.375Z,9.90
2017-11-07T09:47:10.970Z,10.10
2017-11-07T09:49:39.545Z,10.10
2017-11-07T09:52:07.309Z,10.00
2017-11-07T09:54:35.143Z,10.10
2017-11-07T09:57:03.019Z,10.10
2017-11-07T09:59:30.892Z,10.10
2017-11-07T10:01:58.852Z,10.10
2017-11-07T10:04:26.717Z,10.10
2017-11-07T10:06:54.594Z,10.20
2017-11-07T10:09:22.451Z,10.20
2017-11-07T10:11:50.319Z,10.20
2017-11-07T10:14:18.184Z,10.20
2017-11-07T10:16:46.058Z,10.20
2017-11-07T10:19:14.027Z,10.20
2017-11-07T10:21:41.986Z,10.30
2017-11-07T10:24:09.959Z,10.30
2017-11-07T10:26:37.928Z,10.30
2017-11-07T10:29:05.801Z,10.30
2017-11-07T10:31:33.716Z,10.30
2017-11-07T10:34:01.634Z,10.30
2017-11-07T10:36:29.603Z,10.40
2017-11-07T10:38:58.289Z,10.40
2017-11-07T10:41:26.151Z,10.40
2017-11-07T10:43:54.124Z,10.50
2017-11-07T10:46:22.086Z,10.50
2017-11-07T10:48:50.012Z,10.60
2017-11-07T10:51:17.789Z,10.60
2017-11-07T10:53:45.791Z,10.60
2017-11-07T10:56:13.618Z,10.70
2017-11-07T10:58:41.413Z,10.70
2017-11-07T11:01:09.237Z,10.70
2017-11-07T11:03:37.012Z,10.70
2017-11-07T11:06:04.832Z,10.70
2017-11-07T11:08:32.647Z,10.70
2017-11-07T11:11:00.482Z,10.70
2017-11-07T11:13:29.056Z,10.70
2017-11-07T11:15:56.816Z,10.70
2017-11-07T11:18:24.641Z,10.80
2017-11-07T11:20:52.230Z,10.80
2017-11-07T11:23:19.872Z,10.80
2017-11-07T11:25:47.465Z,10.80
2017-11-07T11:28:15.084Z,10.80
2017-11-07T11:30:42.701Z,10.80
2017-11-07T11:33:11.058Z,10.80
2017-11-07T11:35:38.697Z,10.80
2017-11-07T11:38:07.073Z,11.00
2017-11-07T11:40:34.658Z,10.90
2017-11-07T11:43:02.313Z,10.90
2017-11-07T11:45:29.910Z,10.90
2017-11-07T11:47:58.309Z,10.90
2017-11-07T11:50:26.126Z,10.90
2017-11-07T11:52:53.947Z,10.90
2017-11-07T11:55:21.792Z,11.00
2017-11-07T11:57:49.644Z,11.00
2017-11-07T12:00:18.308Z,11.10
2017-11-07T12:02:46.056Z,11.00
2017-11-07T12:05:13.885Z,11.00
2017-11-07T12:07:41.704Z,11.00
2017-11-07T12:10:09.559Z,11.00
2017-11-07T12:12:37.372Z,11.00
2017-11-07T12:15:05.220Z,11.10
2017-11-07T12:17:34.666Z,11.10
2017-11-07T12:20:02.510Z,11.10
2017-11-07T12:22:30.342Z,11.20
2017-11-07T12:24:58.142Z,11.20
2017-11-07T12:27:25.992Z,11.20
2017-11-07T12:29:54.596Z,11.20
2017-11-07T12:32:22.405Z,11.20
2017-11-07T12:34:50.196Z,11.20
2017-11-07T12:37:18.045Z,11.30
2017-11-07T12:39:45.898Z,11.30
2017-11-07T12:42:13.656Z,11.30
2017-11-07T12:44:41.416Z,11.30
2017-11-07T12:47:09.107Z,11.30
2017-11-07T12:49:36.845Z,11.30
2017-11-07T12:52:04.654Z,11.40
2017-11-07T12:54:33.133Z,11.30
2017-11-07T12:57:01.703Z,11.30
2017-11-07T12:59:29.465Z,11.20
2017-11-07T13:01:57.227Z,11.20
2017-11-07T13:04:25.063Z,11.20
2017-11-07T13:06:52.827Z,11.20
2017-11-07T13:09:20.638Z,11.20
2017-11-07T13:11:49.168Z,11.20
2017-11-07T13:14:17.002Z,11.20
2017-11-07T13:16:45.525Z,11.30
2017-11-07T13:19:13.311Z,11.30
2017-11-07T13:21:41.129Z,11.40
2017-11-07T13:24:08.893Z,11.40
2017-11-07T13:26:36.704Z,11.40
2017-11-07T13:29:04.462Z,11.40
2017-11-07T13:31:32.222Z,11.40
2017-11-07T13:34:00.018Z,11.40
2017-11-07T13:36:27.796Z,11.40
2017-11-07T13:38:56.382Z,11.50
2017-11-07T13:41:24.925Z,11.40
2017-11-07T13:43:53.446Z,11.40
2017-11-07T13:46:22.011Z,11.40
2017-11-07T13:48:49.792Z,11.30
2017-11-07T13:51:18.367Z,11.30
2017-11-07T13:53:46.908Z,11.30
2017-11-07T13:56:14.716Z,11.30
2017-11-07T13:58:43.352Z,11.30
2017-11-07T14:01:11.149Z,11.30
2017-11-07T14:06:12.983Z,11.40
2017-11-07T14:08:40.786Z,11.40
2017-11-07T14:11:08.373Z,11.40
2017-11-07T14:13:36.769Z,11.40
2017-11-07T14:16:04.369Z,11.40
2017-11-07T14:18:31.974Z,11.40
2017-11-07T14:21:00.361Z,11.30
2017-11-07T14:23:28.747Z,11.30
2017-11-07T14:25:56.416Z,11.20
2017-11-07T14:28:24.055Z,11.30
2017-11-07T14:30:52.413Z,11.10
2017-11-07T14:33:20.041Z,11.00
2017-11-07T14:35:47.697Z,11.00
2017-11-07T14:38:15.366Z,11.00
2017-11-07T14:40:42.980Z,10.90
2017-11-07T14:43:11.405Z,10.80
2017-11-07T14:45:39.012Z,10.80
2017-11-07T14:48:07.374Z,10.80
2017-11-07T14:50:34.990Z,10.70
2017-11-07T14:53:02.587Z,10.80
2017-11-07T14:55:31.423Z,10.80
2017-11-07T14:57:59.033Z,10.80
2017-11-07T15:00:26.655Z,10.70
2017-11-07T15:02:54.298Z,10.70
2017-11-07T15:05:22.662Z,10.80
2017-11-07T15:07:51.058Z,10.80
2017-11-07T15:10:19.418Z,10.80
2017-11-07T15:12:47.285Z,10.70
2017-11-07T15:15:15.829Z,10.80
2017-11-07T15:17:43.609Z,10.70
2017-11-07T15:20:11.376Z,10.80
2017-11-07T15:22:39.141Z,10.70
2017-11-07T15:25:06.949Z,10.70
2017-11-07T15:27:34.683Z,10.70
2017-11-07T15:30:02.472Z,10.60
2017-11-07T15:32:30.245Z,10.60
2017-11-07T15:34:58.053Z,10.60
2017-11-07T15:37:25.812Z,10.70
2017-11-07T15:39:53.580Z,10.70
2017-11-07T15:42:21.423Z,10.70
2017-11-07T15:44:49.178Z,10.60
2017-11-07T15:47:16.993Z,10.60
2017-11-07T15:49:44.769Z,10.60
2017-11-07T15:52:12.540Z,10.60
2017-11-07T15:54:41.117Z,10.50
2017-11-07T15:57:08.879Z,10.50
2017-11-07T15:59:36.708Z,10.50
2017-11-07T16:02:04.489Z,10.50
2017-11-07T16:04:32.284Z,10.50
2017-11-07T16:07:00.877Z,10.40
2017-11-07T16:09:29.430Z,10.40
2017-11-07T16:11:57.242Z,10.40
2017-11-07T16:14:25.015Z,10.40
2017-11-07T16:16:52.823Z,10.50
2017-11-07T16:19:20.588Z,10.50
2017-11-07T16:21:48.378Z,10.50
2017-11-07T16:24:16.972Z,10.40
2017-11-07T16:26:45.528Z,10.40
2017-11-07T16:29:13.348Z,10.30
2017-11-07T16:31:41.596Z,10.30
2017-11-07T16:34:10.133Z,10.30
2017-11-07T16:36:37.921Z,10.30
2017-11-07T16:39:05.692Z,10.40
2017-11-07T16:41:34.300Z,10.30
2017-11-07T16:44:02.034Z,10.20
2017-11-07T16:46:29.801Z,10.20
2017-11-07T16:48:57.608Z,10.20
2017-11-07T16:51:25.389Z,10.10
2017-11-07T16:53:53.202Z,10.10
2017-11-07T16:56:21.746Z,10.00
2017-11-07T16:58:49.508Z,10.00
2017-11-07T17:01:17.327Z,10.00
2017-11-07T17:03:46.552Z,10.00
2017-11-07T17:06:14.885Z,9.90
2017-11-07T17:08:43.066Z,10.00
2017-11-07T17:11:11.236Z,10.00
2017-11-07T17:13:40.089Z,10.00
2017-11-07T17:16:08.406Z,9.90
2017-11-07T17:18:36.247Z,10.00
2017-11-07T17:21:04.064Z,10.00
2017-11-07T17:23:31.903Z,10.00
2017-11-07T17:26:00.491Z,9.90
2017-11-07T17:28:29.059Z,9.90
2017-11-07T17:30:56.824Z,9.90
2017-11-07T17:33:24.621Z,10.00
2017-11-07T17:35:52.447Z,9.90
2017-11-07T17:38:20.229Z,9.90
2017-11-07T17:40:48.847Z,9.90
2017-11-07T17:43:16.602Z,9.80
2017-11-07T17:45:44.361Z,9.90
2017-11-07T17:48:12.213Z,10.00
2017-11-07T17:50:40.729Z,10.00
2017-11-07T17:53:08.537Z,9.90
2017-11-07T17:55:36.318Z,10.00
2017-11-07T17:58:04.845Z,10.00
2017-11-07T18:00:32.670Z,9.90
2017-11-07T18:03:01.328Z,10.00
2017-11-07T18:05:29.297Z,9.90
2017-11-07T18:07:57.074Z,10.00
2017-11-07T18:10:24.902Z,10.00
2017-11-07T18:12:52.689Z,10.00
2017-11-07T18:15:21.078Z,9.90
2017-11-07T18:17:48.854Z,9.90
2017-11-07T18:20:16.587Z,9.80
2017-11-07T18:22:44.370Z,9.90
2017-11-07T18:25:12.144Z,9.90
2017-11-07T18:27:39.974Z,9.90
2017-11-07T18:30:08.677Z,10.00
2017-11-07T18:32:36.306Z,9.90
2017-11-07T18:35:03.905Z,9.90
2017-11-07T18:37:31.502Z,9.90
2017-11-07T18:39:59.147Z,9.90
2017-11-07T18:42:26.747Z,9.80
2017-11-07T18:44:54.382Z,9.90
2017-11-07T18:47:22.748Z,9.80
2017-11-07T18:49:51.119Z,9.70
2017-11-07T18:52:19.519Z,9.70
2017-11-07T18:54:47.137Z,9.70
2017-11-07T18:57:14.765Z,9.80
2017-11-07T18:59:42.353Z,9.80
2017-11-07T19:02:09.966Z,9.70
2017-11-07T19:04:37.591Z,9.70
2017-11-07T19:07:05.196Z,9.60
2017-11-07T19:09:32.791Z,9.60
2017-11-07T19:12:00.409Z,9.60
2017-11-07T19:14:28.772Z,9.50
2017-11-07T19:16:57.132Z,9.50
2017-11-07T19:19:24.762Z,9.40
2017-11-07T19:21:52.376Z,9.50
2017-11-07T19:24:20.733Z,9.60
2017-11-07T19:26:48.369Z,9.60
2017-11-07T19:29:15.973Z,9.60
2017-11-07T19:31:44.550Z,9.60
2017-11-07T19:34:12.331Z,9.50
2017-11-07T19:36:40.936Z,9.50
2017-11-07T19:39:08.716Z,9.40
2017-11-07T19:41:36.587Z,9.40
2017-11-07T19:44:04.367Z,9.40
2017-11-07T19:46:32.110Z,9.40
2017-11-07T19:48:59.985Z,9.40
2017-11-07T19:51:27.754Z,9.40
2017-11-07T19:53:55.539Z,9.40
2017-11-07T19:56:23.376Z,9.40
2017-11-07T19:58:51.178Z,9.40
2017-11-07T20:01:19.060Z,9.40
2017-11-07T20:03:47.620Z,9.30
2017-11-07T20:06:15.489Z,9.30
2017-11-07T20:08:43.248Z,9.30
2017-11-07T20:11:11.069Z,9.30
2017-11-07T20:13:38.824Z,9.20
2017-11-07T20:16:06.772Z,9.20
2017-11-07T20:18:34.574Z,9.30
2017-11-07T20:21:02.514Z,9.20
2017-11-07T20:23:31.165Z,9.20
2017-11-07T20:25:59.341Z,9.20
2017-11-07T20:28:27.201Z,9.20
2017-11-07T20:30:54.821Z,9.20
2017-11-07T20:33:22.738Z,9.20
2017-11-07T20:35:50.604Z,9.20
2017-11-07T20:38:18.467Z,9.20
2017-11-07T20:40:46.300Z,9.20
2017-11-07T20:43:14.194Z,9.20
2017-11-07T20:45:42.058Z,9.30
2017-11-07T20:48:09.926Z,9.30
2017-11-07T20:50:37.796Z,9.40
2017-11-07T20:53:05.661Z,9.40
2017-11-07T20:55:33.533Z,9.50
2017-11-07T20:58:01.399Z,9.50
2017-11-07T21:00:29.373Z,9.50
2017-11-07T21:02:57.135Z,9.60
2017-11-07T21:05:25.084Z,9.50
2017-11-07T21:07:52.873Z,9.50
2017-11-07T21:10:20.708Z,9.60
2017-11-07T21:12:48.505Z,9.60
2017-11-07T21:15:16.325Z,9.60
2017-11-07T21:17:44.225Z,9.70
2017-11-07T21:20:12.196Z,9.70
2017-11-07T21:22:40.021Z,9.70
2017-11-07T21:25:07.778Z,9.80
2017-11-07T21:27:35.561Z,9.80
2017-11-07T21:30:03.376Z,9.80
2017-11-07T21:32:31.231Z,9.80
2017-11-07T21:34:59.127Z,9.80
2017-11-07T21:37:26.988Z,9.80
2017-11-07T21:39:55.599Z,9.90
2017-11-07T21:42:25.250Z,9.80
2017-11-07T21:44:56.159Z,9.90
2017-11-07T21:47:26.834Z,10.00
2017-11-07T21:49:57.602Z,9.90
2017-11-07T21:52:27.671Z,9.90
2017-11-07T21:54:57.996Z,10.00
2017-11-07T21:57:28.115Z,10.00
2017-11-07T21:59:56.173Z,9.90
2017-11-07T22:02:24.169Z,9.90
2017-11-07T22:04:51.759Z,9.90
2017-11-07T22:07:20.153Z,10.00
2017-11-07T22:09:47.742Z,9.90
2017-11-07T22:12:16.243Z,10.00
2017-11-07T22:14:43.856Z,10.00
2017-11-07T22:17:11.457Z,10.00
2017-11-07T22:19:39.109Z,10.00
2017-11-07T22:22:06.706Z,10.00
2017-11-07T22:24:34.313Z,10.00
2017-11-07T22:27:03.725Z,10.00
2017-11-07T22:29:31.321Z,10.00
2017-11-07T22:31:58.968Z,10.10
2017-11-07T22:34:26.586Z,10.10
2017-11-07T22:36:54.189Z,10.10
2017-11-07T22:39:21.821Z,10.10
2017-11-07T22:41:49.412Z,10.10
2017-11-07T22:44:17.052Z,10.10
2017-11-07T22:46:44.661Z,10.10
2017-11-07T22:49:13.062Z,10.10
2017-11-07T22:51:40.656Z,10.00
2017-11-07T22:54:08.249Z,10.10
2017-11-07T22:56:35.870Z,10.00
2017-11-07T22:59:03.494Z,10.00
2017-11-07T23:01:31.889Z,9.90
2017-11-07T23:03:59.480Z,9.90
2017-11-07T23:06:27.078Z,9.90
2017-11-07T23:08:54.717Z,10.00
2017-11-07T23:11:22.318Z,10.00
2017-11-07T23:13:49.961Z,10.00
2017-11-07T23:16:18.333Z,10.00
2017-11-07T23:18:45.933Z,10.00
2017-11-07T23:21:13.558Z,10.00
2017-11-07T23:23:41.161Z,9.90
2017-11-07T23:26:08.781Z,9.80
2017-11-07T23:28:36.373Z,9.70
2017-11-07T23:31:03.961Z,9.70
2017-11-07T23:33:31.573Z,9.70
2017-11-07T23:35:59.951Z,9.70
2017-11-07T23:38:28.340Z,9.70
2017-11-07T23:40:56.710Z,9.70
2017-11-07T23:43:25.077Z,9.60
2017-11-07T23:45:52.688Z,9.60
2017-11-07T23:48:20.289Z,9.60
2017-11-07T23:50:47.928Z,9.60
2017-11-07T23:53:15.521Z,9.60
2017-11-07T23:55:43.115Z,9.60
2017-11-07T23:58:10.744Z,9.60
